createdAt,value
2024-01-20T00:00:46.505Z,93.32
2024-01-20T00:03:34.755Z,92.35
2024-01-20T00:06:03.334Z,91.37
2024-01-20T00:08:33.112Z,91.67
2024-01-20T00:11:01.588Z,92.06
2024-01-20T00:13:30.704Z,92.01
2024-01-20T00:16:00.448Z,92.00
2024-01-20T00:18:29.217Z,91.86
2024-01-20T00:20:57.958Z,91.78
2024-01-20T00:23:26.779Z,91.39
2024-01-20T00:25:55.224Z,91.45
2024-01-20T00:28:23.709Z,91.34
2024-01-20T00:30:55.101Z,91.22
2024-01-20T00:33:23.854Z,91.23
2024-01-20T00:35:52.598Z,91.31
2024-01-20T00:38:20.948Z,91.03
2024-01-20T00:40:49.382Z,90.49
2024-01-20T00:43:23.228Z,90.80
2024-01-20T00:45:52.788Z,90.80
2024-01-20T00:48:21.593Z,90.87
2024-01-20T00:50:49.850Z,91.07
2024-01-20T00:53:18.241Z,90.34
2024-01-20T00:55:47.257Z,90.27
2024-01-20T00:58:15.535Z,89.46
2024-01-20T01:00:44.014Z,88.60
2024-01-20T01:03:12.456Z,88.80
2024-01-20T01:05:40.816Z,89.11
2024-01-20T01:08:14.169Z,88.67
2024-01-20T01:10:43.281Z,87.73
2024-01-20T01:13:11.680Z,86.57
2024-01-20T01:15:39.914Z,87.33
2024-01-20T01:18:10.048Z,87.56
2024-01-20T01:20:38.357Z,87.73
2024-01-20T01:23:06.758Z,87.71
2024-01-20T01:25:35.148Z,87.42
2024-01-20T01:28:03.865Z,87.98
2024-01-20T01:30:32.854Z,87.37
2024-01-20T01:33:01.214Z,87.25
2024-01-20T01:35:29.781Z,87.50
2024-01-20T01:38:15.026Z,86.77
2024-01-20T01:40:59.783Z,86.69
2024-01-20T01:43:30.734Z,86.50
2024-01-20T01:46:06.159Z,86.01
2024-01-20T01:48:35.240Z,86.20
2024-01-20T01:51:05.678Z,86.12
2024-01-20T01:53:35.495Z,85.99
2024-01-20T01:56:06.363Z,86.33
2024-01-20T01:58:34.649Z,86.53
2024-01-20T02:01:03.042Z,86.73
2024-01-20T02:03:31.667Z,86.28
2024-01-20T02:06:00.141Z,86.46
2024-01-20T02:08:29.450Z,86.35
2024-01-20T02:10:58.850Z,86.16
2024-01-20T02:13:27.144Z,86.14
2024-01-20T02:15:55.753Z,86.15
2024-01-20T02:18:24.266Z,86.31
2024-01-20T02:20:52.823Z,86.23
2024-01-20T02:23:21.609Z,85.71
2024-01-20T02:25:49.841Z,85.90
2024-01-20T02:28:18.203Z,86.05
2024-01-20T02:30:48.062Z,85.53
2024-01-20T02:33:16.585Z,85.25
2024-01-20T02:35:45.118Z,85.21
2024-01-20T02:38:13.592Z,85.00
2024-01-20T02:40:41.817Z,84.34
2024-01-20T02:43:10.113Z,84.78
2024-01-20T02:45:38.429Z,84.93
2024-01-20T02:48:07.471Z,84.96
2024-01-20T02:50:35.954Z,85.13
2024-01-20T02:53:04.387Z,84.82
2024-01-20T02:55:33.743Z,84.02
2024-01-20T02:58:02.380Z,84.12
2024-01-20T03:00:30.651Z,84.33
2024-01-20T03:02:59.013Z,84.44
2024-01-20T03:05:27.430Z,84.71
2024-01-20T03:07:56.019Z,84.87
2024-01-20T03:10:24.510Z,84.96
2024-01-20T03:12:52.864Z,85.18
2024-01-20T03:15:21.333Z,85.29
2024-01-20T03:17:49.691Z,85.48
2024-01-20T03:20:18.011Z,85.59
2024-01-20T03:22:46.179Z,85.74
2024-01-20T03:25:14.789Z,85.97
2024-01-20T03:27:43.160Z,86.06
2024-01-20T03:30:11.926Z,86.14
2024-01-20T03:32:40.275Z,86.20
2024-01-20T03:35:09.121Z,86.20
2024-01-20T03:37:37.360Z,86.30
2024-01-20T03:40:06.057Z,86.50
2024-01-20T03:42:34.501Z,86.54
2024-01-20T03:45:03.182Z,86.69
2024-01-20T03:47:33.210Z,86.80
2024-01-20T03:50:05.280Z,86.81
2024-01-20T03:52:33.864Z,86.97
2024-01-20T03:55:02.245Z,87.03
2024-01-20T03:57:30.597Z,87.18
2024-01-20T03:59:59.370Z,87.32
2024-01-20T04:02:29.087Z,87.44
2024-01-20T04:04:57.586Z,87.53
2024-01-20T04:07:26.168Z,87.66
2024-01-20T04:09:54.522Z,87.86
2024-01-20T04:12:22.836Z,88.04
2024-01-20T04:14:51.194Z,88.03
2024-01-20T04:17:19.630Z,88.05
2024-01-20T04:19:47.892Z,88.19
2024-01-20T04:22:16.105Z,88.39
2024-01-20T04:24:44.264Z,88.47
2024-01-20T04:27:12.713Z,88.33
2024-01-20T04:29:41.173Z,88.51
2024-01-20T04:32:09.473Z,88.64
2024-01-20T04:34:37.866Z,88.72
2024-01-20T04:37:07.668Z,88.83
2024-01-20T04:39:36.030Z,88.93
2024-01-20T04:42:04.853Z,89.17
2024-01-20T04:44:33.260Z,89.32
2024-01-20T04:47:01.385Z,89.25
2024-01-20T04:49:30.066Z,89.37
2024-01-20T04:52:03.104Z,89.33
2024-01-20T04:54:31.584Z,89.22
2024-01-20T04:56:59.946Z,89.22
2024-01-20T04:59:28.422Z,89.17
2024-01-20T05:01:56.626Z,89.29
2024-01-20T05:04:24.855Z,89.47
2024-01-20T05:06:53.209Z,89.44
2024-01-20T05:09:21.839Z,89.41
2024-01-20T05:11:50.429Z,89.46
2024-01-20T05:14:18.787Z,89.57
2024-01-20T05:16:46.993Z,89.59
2024-01-20T05:19:15.634Z,89.83
2024-01-20T05:21:45.301Z,89.91
2024-01-20T05:24:15.403Z,89.78
2024-01-20T05:26:44.394Z,89.85
2024-01-20T05:29:12.995Z,89.93
2024-01-20T05:31:41.329Z,89.83
2024-01-20T05:34:09.820Z,89.78
2024-01-20T05:36:38.799Z,89.86
2024-01-20T05:39:07.263Z,89.90
2024-01-20T05:41:35.595Z,89.66
2024-01-20T05:44:04.225Z,89.69
2024-01-20T05:46:32.692Z,89.62
2024-01-20T05:49:01.199Z,89.54
2024-01-20T05:51:29.737Z,89.34
2024-01-20T05:53:58.605Z,89.16
2024-01-20T05:56:27.033Z,89.07
2024-01-20T05:58:55.151Z,89.02
2024-01-20T06:01:23.530Z,88.83
2024-01-20T06:03:52.117Z,88.75
2024-01-20T06:06:20.525Z,88.49
2024-01-20T06:08:48.880Z,88.49
2024-01-20T06:11:17.094Z,88.25
2024-01-20T06:13:45.432Z,88.21
2024-01-20T06:16:14.304Z,88.05
2024-01-20T06:18:42.702Z,88.01
2024-01-20T06:21:10.924Z,87.67
2024-01-20T06:23:39.491Z,87.49
2024-01-20T06:26:07.631Z,87.60
2024-01-20T06:28:35.790Z,87.58
2024-01-20T06:31:04.431Z,87.67
2024-01-20T06:33:32.838Z,87.74
2024-01-20T06:36:01.301Z,87.29
2024-01-20T06:38:29.690Z,86.95
2024-01-20T06:40:58.122Z,86.64
2024-01-20T06:43:26.555Z,86.56
2024-01-20T06:45:54.887Z,86.66
2024-01-20T06:48:23.207Z,86.68
2024-01-20T06:50:51.650Z,86.72
2024-01-20T06:53:19.854Z,86.85
2024-01-20T06:55:48.127Z,86.75
2024-01-20T06:58:16.483Z,86.93
2024-01-20T07:00:44.876Z,86.96
2024-01-20T07:03:13.622Z,87.12
2024-01-20T07:05:42.890Z,87.18
2024-01-20T07:08:11.782Z,87.30
2024-01-20T07:10:40.408Z,87.35
2024-01-20T07:13:10.708Z,87.63
2024-01-20T07:15:39.628Z,87.83
2024-01-20T07:18:08.480Z,87.46
2024-01-20T07:20:36.829Z,87.53
2024-01-20T07:23:05.017Z,86.50
2024-01-20T07:25:37.794Z,86.13
2024-01-20T07:28:06.327Z,84.54
2024-01-20T07:30:34.893Z,83.41
2024-01-20T07:33:03.491Z,82.86
2024-01-20T07:35:31.947Z,82.68
2024-01-20T07:38:00.151Z,81.94
2024-01-20T07:40:28.472Z,81.02
2024-01-20T07:42:57.077Z,80.17
2024-01-20T07:45:28.323Z,79.06
2024-01-20T07:47:56.816Z,79.28
2024-01-20T07:50:25.452Z,79.58
2024-01-20T07:52:53.955Z,78.59
2024-01-20T07:55:22.250Z,77.79
2024-01-20T07:57:50.780Z,77.38
2024-01-20T08:00:19.415Z,76.51
2024-01-20T08:02:48.236Z,76.16
2024-01-20T08:05:16.971Z,76.67
2024-01-20T08:07:45.431Z,76.89
2024-01-20T08:10:13.887Z,76.78
2024-01-20T08:12:42.762Z,75.72
2024-01-20T08:15:11.147Z,75.97
2024-01-20T08:17:40.815Z,75.85
2024-01-20T08:20:11.157Z,74.53
2024-01-20T08:22:39.422Z,73.35
2024-01-20T08:25:08.270Z,72.65
2024-01-20T08:27:36.950Z,73.49
2024-01-20T08:30:06.172Z,73.99
2024-01-20T08:32:34.577Z,73.07
2024-01-20T08:35:02.936Z,71.85
2024-01-20T08:37:31.317Z,71.17
2024-01-20T08:39:59.817Z,70.31
2024-01-20T08:42:28.780Z,70.05
2024-01-20T08:44:57.073Z,66.44
2024-01-20T08:47:25.421Z,69.21
2024-01-20T08:49:54.117Z,67.39
2024-01-20T08:52:22.587Z,68.39
2024-01-20T08:54:51.034Z,66.43
2024-01-20T08:57:19.624Z,66.34
2024-01-20T08:59:48.258Z,67.21
2024-01-20T09:02:16.614Z,64.36
2024-01-20T09:04:44.903Z,65.15
2024-01-20T09:07:13.174Z,63.76
2024-01-20T09:09:41.392Z,64.66
2024-01-20T09:12:09.692Z,64.18
2024-01-20T09:14:38.053Z,64.33
2024-01-20T09:17:06.871Z,63.15
2024-01-20T09:19:35.200Z,62.44
2024-01-20T09:22:03.527Z,62.61
2024-01-20T09:24:31.954Z,62.41
2024-01-20T09:27:01.204Z,63.25
2024-01-20T09:29:29.697Z,60.68
2024-01-20T09:31:58.261Z,61.26
2024-01-20T09:34:26.550Z,61.36
2024-01-20T09:36:54.831Z,59.08
2024-01-20T09:39:23.203Z,56.75
2024-01-20T09:41:52.251Z,58.49
2024-01-20T09:44:21.293Z,57.68
2024-01-20T09:46:49.742Z,56.91
2024-01-20T09:49:18.242Z,56.87
2024-01-20T09:51:52.308Z,57.42
2024-01-20T09:54:24.119Z,56.81
2024-01-20T09:56:53.029Z,56.33
2024-01-20T09:59:23.865Z,55.50
2024-01-20T10:01:53.419Z,55.56
2024-01-20T10:04:24.913Z,56.97
2024-01-20T10:06:55.328Z,55.66
2024-01-20T10:09:24.286Z,54.77
2024-01-20T10:11:52.965Z,56.02
2024-01-20T10:14:21.141Z,55.90
2024-01-20T10:16:50.463Z,55.44
2024-01-20T10:19:19.040Z,54.33
2024-01-20T10:21:47.681Z,54.35
2024-01-20T10:24:24.980Z,52.64
2024-01-20T10:26:54.740Z,52.89
2024-01-20T10:29:23.204Z,53.01
2024-01-20T10:31:52.021Z,51.06
2024-01-20T10:34:21.764Z,49.95
2024-01-20T10:37:01.094Z,51.89
2024-01-20T10:39:31.252Z,52.42
2024-01-20T10:42:02.804Z,52.23
2024-01-20T10:44:40.936Z,51.37
2024-01-20T10:47:25.510Z,49.59
2024-01-20T10:49:55.319Z,49.94
2024-01-20T10:52:24.079Z,47.61
2024-01-20T10:54:52.541Z,48.51
2024-01-20T10:57:21.661Z,49.13
2024-01-20T10:59:51.332Z,49.89
2024-01-20T11:02:21.059Z,50.19
2024-01-20T11:04:49.625Z,50.46
2024-01-20T11:07:25.643Z,50.09
2024-01-20T11:09:58.283Z,48.05
2024-01-20T11:12:31.185Z,47.59
2024-01-20T11:14:59.941Z,47.27
2024-01-20T11:17:30.270Z,47.89
2024-01-20T11:20:07.949Z,48.78
2024-01-20T11:22:47.709Z,48.23
2024-01-20T11:25:19.372Z,48.32
2024-01-20T11:27:49.777Z,48.40
2024-01-20T11:30:34.776Z,48.84
2024-01-20T11:33:04.448Z,47.70
2024-01-20T11:35:33.517Z,47.14
2024-01-20T11:38:02.944Z,46.85
2024-01-20T11:40:31.741Z,46.26
2024-01-20T11:43:07.871Z,46.81
2024-01-20T11:45:36.485Z,45.92
2024-01-20T11:48:06.005Z,44.85
2024-01-20T11:50:35.531Z,45.23
2024-01-20T11:53:04.511Z,45.71
2024-01-20T11:55:34.554Z,45.28
2024-01-20T11:58:04.959Z,43.76
2024-01-20T12:00:33.766Z,43.04
2024-01-20T12:03:02.468Z,44.00
2024-01-20T12:05:35.488Z,43.22
2024-01-20T12:08:05.565Z,42.76
2024-01-20T12:10:34.486Z,43.45
2024-01-20T12:13:05.533Z,42.44
2024-01-20T12:15:37.839Z,41.79
2024-01-20T12:18:08.021Z,42.11
2024-01-20T12:20:39.713Z,42.01
2024-01-20T12:23:08.124Z,40.51
2024-01-20T12:25:36.558Z,40.13
2024-01-20T12:28:05.475Z,40.06
2024-01-20T12:30:33.954Z,40.12
2024-01-20T12:33:02.706Z,38.47
2024-01-20T12:35:31.152Z,40.27
2024-01-20T12:38:00.474Z,40.21
2024-01-20T12:40:31.319Z,40.55
2024-01-20T12:42:59.891Z,40.23
2024-01-20T12:45:30.874Z,40.00
2024-01-20T12:47:59.570Z,40.41
2024-01-20T12:50:29.616Z,40.30
2024-01-20T12:52:58.420Z,39.07
2024-01-20T12:55:26.830Z,38.97
2024-01-20T12:57:55.594Z,39.02
2024-01-20T13:00:24.753Z,40.02
2024-01-20T13:02:53.318Z,40.83
2024-01-20T13:05:22.231Z,40.40
2024-01-20T13:07:50.680Z,40.25
2024-01-20T13:10:19.342Z,40.09
2024-01-20T13:12:47.941Z,39.89
2024-01-20T13:15:16.501Z,39.60
2024-01-20T13:17:46.194Z,38.97
2024-01-20T13:20:14.716Z,39.60
2024-01-20T13:22:43.544Z,39.54
2024-01-20T13:25:11.905Z,39.98
2024-01-20T13:27:41.467Z,40.14
2024-01-20T13:30:11.102Z,40.54
2024-01-20T13:32:40.361Z,41.22
2024-01-20T13:35:10.475Z,41.57
2024-01-20T13:37:39.386Z,42.23
2024-01-20T13:40:11.028Z,42.10
2024-01-20T13:42:42.458Z,42.51
2024-01-20T13:45:12.991Z,42.64
2024-01-20T13:47:41.495Z,42.56
2024-01-20T13:50:11.389Z,42.66
2024-01-20T13:52:40.295Z,43.05
2024-01-20T13:55:09.141Z,43.17
2024-01-20T13:57:38.202Z,43.91
2024-01-20T14:00:07.415Z,44.30
2024-01-20T14:02:37.047Z,44.96
2024-01-20T14:05:06.856Z,45.30
2024-01-20T14:07:35.644Z,45.84
2024-01-20T14:10:06.953Z,45.93
2024-01-20T14:12:37.294Z,45.64
2024-01-20T14:15:06.756Z,45.90
2024-01-20T14:17:35.727Z,45.34
2024-01-20T14:20:04.796Z,45.74
2024-01-20T14:22:35.188Z,46.30
2024-01-20T14:25:06.470Z,46.73
2024-01-20T14:27:35.675Z,47.08
2024-01-20T14:30:05.624Z,47.62
2024-01-20T14:32:34.648Z,48.19
2024-01-20T14:35:04.069Z,48.65
2024-01-20T14:37:32.524Z,49.11
2024-01-20T14:40:01.032Z,49.74
2024-01-20T14:42:30.141Z,50.17
2024-01-20T14:44:58.708Z,50.86
2024-01-20T14:47:27.375Z,51.21
2024-01-20T14:49:56.889Z,51.74
2024-01-20T14:52:25.529Z,52.44
2024-01-20T14:54:54.300Z,52.76
2024-01-20T14:57:22.664Z,53.36
2024-01-20T14:59:53.182Z,53.72
2024-01-20T15:02:21.750Z,54.03
2024-01-20T15:04:50.310Z,54.42
2024-01-20T15:07:20.007Z,54.86
2024-01-20T15:09:49.048Z,54.98
2024-01-20T15:12:17.768Z,55.56
2024-01-20T15:14:46.269Z,55.58
2024-01-20T15:17:15.194Z,55.97
2024-01-20T15:19:43.943Z,56.42
2024-01-20T15:22:16.416Z,56.54
2024-01-20T15:24:45.803Z,56.73
2024-01-20T15:27:14.807Z,57.33
2024-01-20T15:29:46.561Z,57.32
2024-01-20T15:32:20.220Z,57.77
2024-01-20T15:34:50.739Z,58.17
2024-01-20T15:37:20.352Z,58.67
2024-01-20T15:39:51.702Z,59.73
2024-01-20T15:42:22.724Z,59.78
2024-01-20T15:44:52.695Z,60.14
2024-01-20T15:47:21.219Z,60.57
2024-01-20T15:49:49.763Z,62.06
2024-01-20T15:52:19.065Z,62.60
2024-01-20T15:54:48.319Z,63.31
2024-01-20T15:57:16.909Z,63.50
2024-01-20T15:59:45.329Z,64.28
2024-01-20T16:02:13.966Z,63.85
2024-01-20T16:04:42.289Z,64.03
2024-01-20T16:07:12.409Z,63.85
2024-01-20T16:09:43.541Z,64.47
2024-01-20T16:12:12.117Z,64.45
2024-01-20T16:14:40.685Z,64.55
2024-01-20T16:17:10.858Z,64.79
2024-01-20T16:19:39.259Z,65.20
2024-01-20T16:22:07.835Z,65.65
2024-01-20T16:24:36.687Z,66.84
2024-01-20T16:27:05.665Z,67.68
2024-01-20T16:29:34.260Z,67.31
2024-01-20T16:32:03.528Z,68.09
2024-01-20T16:34:32.646Z,68.63
2024-01-20T16:37:01.381Z,68.39
2024-01-20T16:39:29.946Z,68.54
2024-01-20T16:41:58.671Z,68.54
2024-01-20T16:44:27.425Z,68.88
2024-01-20T16:46:55.895Z,69.39
2024-01-20T16:49:25.956Z,69.85
2024-01-20T16:51:57.867Z,70.52
2024-01-20T16:54:26.632Z,70.67
2024-01-20T16:56:56.592Z,70.71
2024-01-20T16:59:25.608Z,70.87
2024-01-20T17:01:54.051Z,71.50
2024-01-20T17:04:22.825Z,71.70
2024-01-20T17:06:52.168Z,71.90
2024-01-20T17:09:20.816Z,71.93
2024-01-20T17:11:49.324Z,71.93
2024-01-20T17:14:19.526Z,72.04
2024-01-20T17:16:48.879Z,72.56
2024-01-20T17:19:20.399Z,72.83
2024-01-20T17:21:49.033Z,73.02
2024-01-20T17:24:17.879Z,73.59
2024-01-20T17:26:46.264Z,73.67
2024-01-20T17:29:14.586Z,73.86
2024-01-20T17:31:43.308Z,74.31
2024-01-20T17:34:13.623Z,74.42
2024-01-20T17:36:42.087Z,74.10
2024-01-20T17:39:11.042Z,73.96
2024-01-20T17:41:41.417Z,73.92
2024-01-20T17:44:09.920Z,73.81
2024-01-20T17:46:46.706Z,73.60
2024-01-20T17:49:16.313Z,74.03
2024-01-20T17:51:47.207Z,74.53
2024-01-20T17:54:15.588Z,74.80
2024-01-20T17:56:44.021Z,75.03
2024-01-20T17:59:12.413Z,75.61
2024-01-20T18:01:40.877Z,75.39
2024-01-20T18:04:09.451Z,75.93
2024-01-20T18:06:38.158Z,75.90
2024-01-20T18:09:06.602Z,75.63
2024-01-20T18:11:35.325Z,75.75
2024-01-20T18:14:04.232Z,77.86
2024-01-20T18:16:33.864Z,78.06
2024-01-20T18:19:02.579Z,78.66
2024-01-20T18:21:31.567Z,78.97
2024-01-20T18:24:00.179Z,78.76
2024-01-20T18:26:28.895Z,78.59
2024-01-20T18:28:58.916Z,78.50
2024-01-20T18:31:35.749Z,78.61
2024-01-20T18:34:34.268Z,78.44
2024-01-20T18:37:20.702Z,78.94
2024-01-20T18:40:02.799Z,80.24
2024-01-20T18:42:33.069Z,80.47
2024-01-20T18:45:06.632Z,81.39
2024-01-20T18:47:35.994Z,82.60
2024-01-20T18:50:07.156Z,82.46
2024-01-20T18:52:38.310Z,81.97
2024-01-20T18:55:07.052Z,81.56
2024-01-20T18:57:36.726Z,80.97
2024-01-20T19:00:05.992Z,80.60
2024-01-20T19:02:34.850Z,80.86
2024-01-20T19:05:15.119Z,81.10
2024-01-20T19:07:55.563Z,80.88
2024-01-20T19:10:25.882Z,80.94
2024-01-20T19:12:55.822Z,81.58
2024-01-20T19:15:25.777Z,81.66
2024-01-20T19:17:54.916Z,81.74
2024-01-20T19:20:25.158Z,81.57
2024-01-20T19:22:53.806Z,81.57
2024-01-20T19:25:22.444Z,81.92
2024-01-20T19:27:53.470Z,82.57
2024-01-20T19:30:22.445Z,83.58
2024-01-20T19:32:53.006Z,83.10
2024-01-20T19:35:23.475Z,82.98
2024-01-20T19:37:53.810Z,83.05
2024-01-20T19:40:22.392Z,83.58
2024-01-20T19:42:51.167Z,84.40
2024-01-20T19:45:20.071Z,85.00
2024-01-20T19:47:50.711Z,85.06
2024-01-20T19:50:23.547Z,84.80
2024-01-20T19:52:53.326Z,84.62
2024-01-20T19:55:22.042Z,84.40
2024-01-20T19:57:50.536Z,84.65
2024-01-20T20:00:22.806Z,84.73
2024-01-20T20:02:51.979Z,84.74
2024-01-20T20:05:21.801Z,84.94
2024-01-20T20:08:00.235Z,84.83
2024-01-20T20:10:31.782Z,85.34
2024-01-20T20:13:00.720Z,85.51
2024-01-20T20:15:29.437Z,85.36
2024-01-20T20:17:58.361Z,85.48
2024-01-20T20:20:27.079Z,85.71
2024-01-20T20:22:55.622Z,85.77
2024-01-20T20:25:24.261Z,86.09
2024-01-20T20:27:53.081Z,86.11
2024-01-20T20:30:28.195Z,87.15
2024-01-20T20:32:57.655Z,87.51
2024-01-20T20:35:26.444Z,89.31
2024-01-20T20:37:58.269Z,89.63
2024-01-20T20:40:26.816Z,89.58
2024-01-20T20:42:55.479Z,89.09
2024-01-20T20:45:24.179Z,88.47
2024-01-20T20:47:52.798Z,88.40
2024-01-20T20:50:21.957Z,88.17
2024-01-20T20:52:50.407Z,88.26
2024-01-20T20:55:18.903Z,88.35
2024-01-20T20:57:47.336Z,88.11
2024-01-20T21:00:16.763Z,88.04
2024-01-20T21:02:45.861Z,88.03
2024-01-20T21:05:17.545Z,88.21
2024-01-20T21:07:47.650Z,89.05
2024-01-20T21:10:18.503Z,90.97
2024-01-20T21:12:47.877Z,90.62
2024-01-20T21:15:17.054Z,90.45
2024-01-20T21:17:45.766Z,89.95
2024-01-20T21:20:14.560Z,89.30
2024-01-20T21:22:43.886Z,88.99
2024-01-20T21:25:15.130Z,89.07
2024-01-20T21:27:43.494Z,89.28
2024-01-20T21:30:12.435Z,89.09
2024-01-20T21:32:40.868Z,88.96
2024-01-20T21:35:09.684Z,89.04
2024-01-20T21:37:38.162Z,89.35
2024-01-20T21:40:08.349Z,89.41
2024-01-20T21:42:37.112Z,89.61
2024-01-20T21:45:06.246Z,89.56
2024-01-20T21:47:35.128Z,89.50
2024-01-20T21:50:04.246Z,89.62
2024-01-20T21:52:32.847Z,91.20
2024-01-20T21:55:06.531Z,92.18
2024-01-20T21:57:37.919Z,92.12
2024-01-20T22:00:10.209Z,92.40
2024-01-20T22:02:45.112Z,91.77
2024-01-20T22:05:13.979Z,91.55
2024-01-20T22:07:43.080Z,91.82
2024-01-20T22:10:13.516Z,91.94
2024-01-20T22:12:42.642Z,91.63
2024-01-20T22:15:11.338Z,91.66
2024-01-20T22:17:39.886Z,92.65
2024-01-20T22:20:09.723Z,93.14
2024-01-20T22:22:43.382Z,92.66
2024-01-20T22:25:12.592Z,92.44
2024-01-20T22:27:41.088Z,92.50
2024-01-20T22:30:48.094Z,92.55
2024-01-20T22:33:25.947Z,92.02
2024-01-20T22:35:54.354Z,91.89
2024-01-20T22:38:22.969Z,91.96
2024-01-20T22:40:51.884Z,91.55
2024-01-20T22:43:20.299Z,91.22
2024-01-20T22:45:52.372Z,90.91
2024-01-20T22:48:33.506Z,91.03
2024-01-20T22:51:05.174Z,90.96
2024-01-20T22:53:35.699Z,90.84
2024-01-20T22:56:05.155Z,90.81
2024-01-20T22:58:35.302Z,91.70
2024-01-20T23:01:03.836Z,92.56
2024-01-20T23:03:32.485Z,93.01
2024-01-20T23:06:01.015Z,92.59
2024-01-20T23:08:29.381Z,91.95
2024-01-20T23:11:03.248Z,91.59
2024-01-20T23:13:31.545Z,91.42
2024-01-20T23:16:03.608Z,91.24
2024-01-20T23:18:32.347Z,91.76
2024-01-20T23:21:00.806Z,92.33
2024-01-20T23:23:31.545Z,93.38
2024-01-20T23:26:00.538Z,93.56
2024-01-20T23:28:28.985Z,93.74
2024-01-20T23:30:57.286Z,93.22
2024-01-20T23:33:25.730Z,92.65
2024-01-20T23:35:54.500Z,92.30
2024-01-20T23:38:23.659Z,91.98
2024-01-20T23:40:51.985Z,91.75
2024-01-20T23:43:23.551Z,91.75
2024-01-20T23:45:52.819Z,91.76
2024-01-20T23:48:21.954Z,91.62
2024-01-20T23:50:50.488Z,91.43
2024-01-20T23:53:19.108Z,91.32
2024-01-20T23:55:47.469Z,91.37
2024-01-20T23:58:16.089Z,91.33
